SLSA/SBL METAR and TAF weather

Enter ICAO airport designator
Station Type Date Time Source
SLSA METAR 2021/02/24 23:00 UTC NOAA

SLSA 242300Z 00000KT 9999 FEW017 BKN200 30/25 Q1006


Station Type Date Time Source
SLSA Decoded METAR 2021/02/24 23:00 UTC NOAA

Santa Ana, Bolivia (SLSA) 13-46S 065-26W
Feb 24, 2021 - 06:00 PM EST / 2021.02.24 2300 UTC
Wind: Calm:0
Visibility: greater than 7 mile(s):0
Sky conditions: mostly cloudy
Temperature: 86 F (30 C)
Heat index: 96.8 F (36.0 C):1
Dew Point: 77 F (25 C)
Relative Humidity: 74%
Pressure (altimeter): 29.71 in. Hg (1006 hPa)
ob: SLSA 242300Z 00000KT 9999 FEW017 BKN200 30/25 Q1006
cycle: 23

Station Type Date Time Source
SLSA TAF 2009/01/07 11:00 UTC NOAA

METAR SLSA 071100Z 00000KT 9999 FEW020 BKN080 26/24 Q1009

Example: see airport list